Preble, Wisconsin
Current Conditions -  °F | °C
As of 8:53 AM on Saturday 01 Nov 2014 (Local Time) from KGRB Reporting Station
Broken Clouds Broken Clouds  
Wind Chill: 22°   Ceiling: 3000
Heat Index: 30°   Visibility: 10mi
Dew Point: 21°   Wind: 8mph
Humidity: 69%   Direction: 350°N
Pressure: 30.49"   Gusts: NA
Location:  44.5075°N, 87.9746°W
Report Text: KGRB 011353Z 35007KT 10SM BKN030 M01/M06 A3049 RMK AO2 SLP333 T10111061
Loading
Personal Weather Stations






























Interactive Weather Map
Tropical Storm Tracking
New forecast layout! Learn more

10-Day Weather Forecast

Advertisements
Track Severe Weather on mobile